首页
METAR-TAF:

METAR-TAF

机场 :

東京國際機場

东京国际机场, 日本

纬度: 35-33N, 经度: 139-47E, 海拔: 5米

当前天气观测

该预报发布于19分钟前的15:11 UTC
风速8节,风向
温度 26°C
湿度 79%
气压 1004 hPa
能见度10公里或以上
少量云层高于1000英尺
多云层高于3000英尺
多云
阵雨

METAR: RJTT 161511Z 35008KT 9999 SHRA FEW010 BKN030 BKN/// 26/22 Q1004 RMK 1ST010 5CU030 A2967

时间: 00:30 (15:30 UTC)

预报

该预报发布于4小时和25分钟前的11:05 UTC
预报有效从16日的 12点(UTC)到 17日的 18点(UTC)
风速18节,风向西南
能見度: 8000
少量云层高于2000英尺
多云层高于3000英尺
成为
从 16日的 13点(UTC)到 16日的 15点(UTC)
风速14节,风向北转西北
短暂存在
从 17日的 00点(UTC)到 17日的 03点(UTC)
风速24节,风向,有时为34节阵风
成为
从 17日的 12点(UTC)到 17日的 15点(UTC)
风速10节,风向东北

TAF: RJTT 161105Z 1612/1718 22018KT 8000 FEW020 BKN030 BECMG 1613/1615 34014KT TEMPO 1700/1703 35024G34KT BECMG 1712/1715 04010KT

超过4000个机场的气象观测和天气预报(METAR&TAF报告)。

可查询的气象台以黄色和红色小点在地图上表示。

将鼠标移到小点上方,可查看气象台名称。

然后点击查看天气观测和预报。

如需切换地图:点击带黑十字的绿色按钮放大地图;点击带横线的绿色按钮缩小地图;或者点击绿色箭头查看邻近地区的地图。


METAR-TAF: